Plum, Texas
Current Conditions -  °F | °C
As of 5:30 PM on Saturday 20 Dec 2014 (Local Time) from K3T5 Reporting Station
Overcast Overcast  
Wind Chill: 55°   Ceiling: 2000
Heat Index: 55°   Visibility: 7mi
Dew Point: 51°   Wind: 3mph
Humidity: 86%   Direction: 60°ENE
Pressure: 30.14"   Gusts: NA
Location:  29.93°N, 96.97°W
Report Text: K3T5 202330Z AUTO 06003KT 7SM OVC020 13/10 A3014 RMK AO2 T01260103
Loading
Personal Weather Stations






























Interactive Weather Map New forecast layout! Learn more

10-Day Weather Forecast

Advertisements
Track Severe Weather on mobile